• Join FlightAware (Why Join?)
  • Login
  • US Flag 
03:35PM EST


 

Airport Tracker/Info


-or-


 

Live Flight TrackerFlight Track Log ✈ TYR847 ✈ 07-Jul-2013 ✈ LOWW / VIE - LATI / TIA

Flight Track Log - Related Links

Times and Time Zones

All times are in EDT time to prevent confusion due to time zone crossing. See the TYR847 flight status page for this flight to view local times or setup timezone preferences in your user account.

Time Position Orientation Groundspeed Altitude Reporting Facility
EDT Latitude Longitude Course Direction KTS MPH feet Rate Location/Type
07:09AM 47.7986 16.7349 160° South  Level Estimated
07:10AM 47.6947 16.7895 161° South  Level Estimated
07:11AM 47.5907 16.8439 161° South  Level Estimated
07:12AM 47.4867 16.8981 161° South  Level Estimated
07:13AM 47.3827 16.9521 161° South  Level Estimated
07:14AM 47.2786 17.0058 161° South  Level Estimated
07:15AM 47.1746 17.0594 161° South  Level Estimated
07:16AM 47.0705 17.1127 161° South  Level Estimated
07:17AM 46.9664 17.1658 161° South  Level Estimated
07:18AM 46.8622 17.2188 161° South  Level Estimated
07:19AM 46.7580 17.2715 161° South  Level Estimated
07:20AM 46.6539 17.3240 161° South  Level Estimated
07:21AM 46.5496 17.3763 161° South  Level Estimated
07:22AM 46.4454 17.4284 161° South  Level Estimated
07:23AM 46.3411 17.4803 161° South  Level Estimated
07:24AM 46.2368 17.5320 161° South  Level Estimated
07:25AM 46.1325 17.5835 161° South  Level Estimated
07:26AM 46.0282 17.6349 161° South  Level Estimated
07:27AM 45.9238 17.6860 161° South  Level Estimated
07:28AM 45.8195 17.7369 161° South  Level Estimated
07:29AM 45.7151 17.7877 161° South  Level Estimated
07:30AM 45.6106 17.8382 161° South  Level Estimated
07:31AM 45.5062 17.8886 161° South  Level Estimated
07:32AM 45.4017 17.9388 161° South  Level Estimated
07:33AM 45.2972 17.9888 161° South  Level Estimated
07:34AM 45.1927 18.0386 161° South  Level Estimated
07:35AM 45.0882 18.0882 161° South  Level Estimated
07:36AM 44.9836 18.1377 162° South  Level Estimated
07:37AM 44.8791 18.1870 162° South  Level Estimated
07:38AM 44.7744 18.2360 162° South  Level Estimated
07:39AM 44.6698 18.2850 162° South  Level Estimated
07:40AM 44.5652 18.3337 162° South  Level Estimated
07:41AM 44.4605 18.3822 162° South  Level Estimated
07:42AM 44.3559 18.4306 162° South  Level Estimated
07:43AM 44.2511 18.4788 162° South  Level Estimated
07:44AM 44.1464 18.5269 162° South  Level Estimated
07:45AM 44.0417 18.5748 162° South  Level Estimated
07:46AM 43.9369 18.6225 162° South  Level Estimated
07:47AM 43.8321 18.6700 162° South  Level Estimated
07:48AM 43.7273 18.7174 162° South  Level Estimated
07:49AM 43.6225 18.7646 162° South  Level Estimated
07:50AM 43.5177 18.8116 162° South  Level Estimated
07:51AM 43.4128 18.8585 162° South  Level Estimated
07:52AM 43.3079 18.9052 162° South  Level Estimated
07:53AM 43.2030 18.9518 162° South  Level Estimated
07:54AM 43.0981 18.9981 162° South  Level Estimated
07:55AM 42.9932 19.0444 162° South  Level Estimated
07:56AM 42.8882 19.0905 162° South  Level Estimated
07:57AM 42.7833 19.1364 162° South  Level Estimated
07:58AM 42.6783 19.1822 162° South  Level Estimated
07:59AM 42.5733 19.2278 162° South  Level Estimated
08:00AM 42.4683 19.2732 162° South  Level Estimated
08:01AM 42.3632 19.3185 162° South  Level Estimated
08:02AM 42.2581 19.3637 162° South  Level Estimated
08:03AM 42.1531 19.4087 162° South  Level Estimated
08:04AM 42.0480 19.4536 162° South  Level Estimated
08:05AM 41.9429 19.4983 162° South  Level Estimated
08:06AM 41.8377 19.5428 162° South  Level Estimated
08:07AM 41.7326 19.5872 163° South  Level Estimated
08:08AM 41.6274 19.6315 163° South  Level Estimated
08:09AM 41.5222 19.6756 163° South  Level Estimated
08:10AM 41.4170 19.7196 163° South  Level Estimated
08:11AM 41.4147 19.7206 163° South  Level Estimated
08:12AM 41.4147 19.7206 21° North  Level Estimated
08:13AM 41.4147 19.7206 21° North  Level Estimated
08:14AM 41.4147 19.7206 21° North  Level Estimated
08:15AM 41.4147 19.7206 21° North  Level Estimated
08:16AM 41.4147 19.7206 21° North  Level Estimated
08:17AM 41.4147 19.7206 21° North  Level Estimated
08:18AM 41.4147 19.7206 21° North  Level Estimated
08:19AM 41.4147 19.7206 21° North  Level Estimated
08:20AM 41.4147 19.7206 21° North  Level Estimated
08:21AM 41.4147 19.7206 21° North  Level Estimated
08:22AM 41.4147 19.7206 21° North  Level Estimated
08:23AM 41.4147 19.7206 21° North  Level Estimated
08:24AM 41.4147 19.7206 21° North  Level Estimated
08:25AM 41.4147 19.7206 21° North  Level Estimated
08:26AM 41.4147 19.7206 21° North  Level Estimated